sensor_id;sensor_type;location;lat;lon;timestamp;pressure;altitude;pressure_sealevel;temperature;humidity
20620;BME280;10469;42.720;23.252;2022-11-15T00:01:46;95500.50;;;4.48;100.00
20620;BME280;10469;42.720;23.252;2022-11-15T00:04:11;95506.28;;;4.51;100.00
20620;BME280;10469;42.720;23.252;2022-11-15T00:06:37;95504.19;;;4.47;100.00
20620;BME280;10469;42.720;23.252;2022-11-15T00:09:02;95506.84;;;4.32;100.00
20620;BME280;10469;42.720;23.252;2022-11-15T00:11:28;95494.53;;;4.16;100.00
20620;BME280;10469;42.720;23.252;2022-11-15T00:13:57;95494.28;;;4.11;100.00
20620;BME280;10469;42.720;23.252;2022-11-15T00:16:23;95488.31;;;4.09;100.00
20620;BME280;10469;42.720;23.252;2022-11-15T00:18:50;95496.53;;;4.14;100.00
20620;BME280;10469;42.720;23.252;2022-11-15T00:21:16;95480.63;;;3.99;100.00
20620;BME280;10469;42.720;23.252;2022-11-15T00:23:42;95474.00;;;3.95;100.00
20620;BME280;10469;42.720;23.252;2022-11-15T00:26:12;95489.78;;;4.12;100.00
20620;BME280;10469;42.720;23.252;2022-11-15T00:28:38;95491.22;;;4.14;100.00
20620;BME280;10469;42.720;23.252;2022-11-15T00:31:06;95494.97;;;4.05;100.00
20620;BME280;10469;42.720;23.252;2022-11-15T00:33:33;95472.78;;;4.06;100.00
20620;BME280;10469;42.720;23.252;2022-11-15T00:36:04;95485.19;;;4.06;100.00
20620;BME280;10469;42.720;23.252;2022-11-15T00:38:32;95492.13;;;3.92;100.00
20620;BME280;10469;42.720;23.252;2022-11-15T00:40:58;95491.22;;;3.85;100.00
20620;BME280;10469;42.720;23.252;2022-11-15T00:43:23;95486.59;;;3.78;100.00
20620;BME280;10469;42.720;23.252;2022-11-15T00:45:49;95478.38;;;3.73;100.00
20620;BME280;10469;42.720;23.252;2022-11-15T00:48:14;95480.66;;;3.76;100.00
20620;BME280;10469;42.720;23.252;2022-11-15T00:50:40;95478.38;;;3.73;100.00
20620;BME280;10469;42.720;23.252;2022-11-15T00:53:05;95489.31;;;3.70;100.00
20620;BME280;10469;42.720;23.252;2022-11-15T00:55:31;95485.03;;;3.69;100.00
20620;BME280;10469;42.720;23.252;2022-11-15T00:57:57;95476.34;;;3.75;100.00
20620;BME280;10469;42.720;23.252;2022-11-15T01:00:22;95467.31;;;3.47;100.00
20620;BME280;10469;42.720;23.252;2022-11-15T01:02:48;95464.00;;;3.45;100.00
20620;BME280;10469;42.720;23.252;2022-11-15T01:05:14;95470.25;;;3.52;100.00
20620;BME280;10469;42.720;23.252;2022-11-15T01:07:39;95462.59;;;3.57;100.00
20620;BME280;10469;42.720;23.252;2022-11-15T01:10:05;95460.69;;;3.66;100.00
20620;BME280;10469;42.720;23.252;2022-11-15T01:12:31;95468.09;;;3.70;100.00
20620;BME280;10469;42.720;23.252;2022-11-15T01:14:57;95471.78;;;3.69;100.00
20620;BME280;10469;42.720;23.252;2022-11-15T01:17:23;95466.59;;;3.76;100.00
20620;BME280;10469;42.720;23.252;2022-11-15T01:19:48;95448.19;;;3.74;100.00
20620;BME280;10469;42.720;23.252;2022-11-15T01:22:14;95468.31;;;3.84;100.00
20620;BME280;10469;42.720;23.252;2022-11-15T01:24:39;95465.09;;;3.59;100.00
20620;BME280;10469;42.720;23.252;2022-11-15T01:27:05;95457.16;;;3.73;100.00
20620;BME280;10469;42.720;23.252;2022-11-15T01:29:30;95461.69;;;3.65;100.00
20620;BME280;10469;42.720;23.252;2022-11-15T01:31:56;95458.56;;;3.61;100.00
20620;BME280;10469;42.720;23.252;2022-11-15T01:34:21;95466.94;;;3.88;100.00
20620;BME280;10469;42.720;23.252;2022-11-15T01:36:47;95464.03;;;3.83;100.00
20620;BME280;10469;42.720;23.252;2022-11-15T01:39:12;95471.16;;;3.82;100.00
20620;BME280;10469;42.720;23.252;2022-11-15T01:41:38;95468.69;;;3.81;100.00
20620;BME280;10469;42.720;23.252;2022-11-15T01:46:54;95456.41;;;3.80;100.00
20620;BME280;10469;42.720;23.252;2022-11-15T01:49:21;95464.47;;;3.71;100.00
20620;BME280;10469;42.720;23.252;2022-11-15T01:51:48;95464.09;;;3.74;100.00
20620;BME280;10469;42.720;23.252;2022-11-15T01:54:17;95457.63;;;3.77;100.00
20620;BME280;10469;42.720;23.252;2022-11-15T01:56:49;95465.03;;;3.82;100.00
20620;BME280;10469;42.720;23.252;2022-11-15T01:59:16;95454.69;;;3.87;100.00
20620;BME280;10469;42.720;23.252;2022-11-15T02:01:42;95458.78;;;3.74;100.00
20620;BME280;10469;42.720;23.252;2022-11-15T02:04:24;95454.31;;;3.75;100.00
20620;BME280;10469;42.720;23.252;2022-11-15T02:06:51;95456.06;;;3.83;100.00
20620;BME280;10469;42.720;23.252;2022-11-15T02:09:17;95457.72;;;3.84;100.00
20620;BME280;10469;42.720;23.252;2022-11-15T02:11:43;95458.78;;;3.74;100.00
20620;BME280;10469;42.720;23.252;2022-11-15T02:14:11;95447.09;;;3.69;100.00
20620;BME280;10469;42.720;23.252;2022-11-15T02:17:05;95466.69;;;3.83;100.00
20620;BME280;10469;42.720;23.252;2022-11-15T02:31:17;95449.19;;;3.36;100.00
20620;BME280;10469;42.720;23.252;2022-11-15T02:42:04;95453.09;;;3.25;100.00
20620;BME280;10469;42.720;23.252;2022-11-15T02:44:55;95458.84;;;3.06;100.00
20620;BME280;10469;42.720;23.252;2022-11-15T02:47:24;95455.31;;;2.90;100.00
20620;BME280;10469;42.720;23.252;2022-11-15T02:49:55;95455.06;;;3.00;100.00
20620;BME280;10469;42.720;23.252;2022-11-15T02:52:24;95456.22;;;2.74;100.00
20620;BME280;10469;42.720;23.252;2022-11-15T02:55:00;95444.56;;;2.53;100.00
20620;BME280;10469;42.720;23.252;2022-11-15T02:57:45;95458.59;;;2.61;100.00
20620;BME280;10469;42.720;23.252;2022-11-15T03:00:20;95460.53;;;2.67;100.00
20620;BME280;10469;42.720;23.252;2022-11-15T03:11:18;95456.31;;;3.12;100.00
20620;BME280;10469;42.720;23.252;2022-11-15T03:13:52;95451.31;;;3.17;100.00
20620;BME280;10469;42.720;23.252;2022-11-15T03:16:30;95451.66;;;3.14;100.00
20620;BME280;10469;42.720;23.252;2022-11-15T03:21:47;95432.25;;;3.37;100.00
20620;BME280;10469;42.720;23.252;2022-11-15T03:24:14;95439.66;;;3.64;100.00
20620;BME280;10469;42.720;23.252;2022-11-15T03:26:44;95448.84;;;3.91;100.00
20620;BME280;10469;42.720;23.252;2022-11-15T03:29:17;95445.50;;;3.97;100.00
20620;BME280;10469;42.720;23.252;2022-11-15T03:31:48;95444.16;;;3.64;100.00
20620;BME280;10469;42.720;23.252;2022-11-15T03:40:02;95434.75;;;3.91;100.00
20620;BME280;10469;42.720;23.252;2022-11-15T03:46:23;95434.34;;;3.64;100.00
20620;BME280;10469;42.720;23.252;2022-11-15T03:48:37;95429.72;;;3.81;100.00
20620;BME280;10469;42.720;23.252;2022-11-15T03:51:05;95431.72;;;3.64;100.00
20620;BME280;10469;42.720;23.252;2022-11-15T03:53:31;95428.88;;;3.66;100.00
20620;BME280;10469;42.720;23.252;2022-11-15T03:55:57;95418.19;;;3.36;100.00
20620;BME280;10469;42.720;23.252;2022-11-15T03:58:23;95434.31;;;3.49;100.00
20620;BME280;10469;42.720;23.252;2022-11-15T04:00:49;95426.66;;;3.55;100.00
20620;BME280;10469;42.720;23.252;2022-11-15T04:03:14;95427.75;;;3.60;100.00
20620;BME280;10469;42.720;23.252;2022-11-15T04:05:40;95422.41;;;3.45;100.00
20620;BME280;10469;42.720;23.252;2022-11-15T04:08:05;95413.47;;;3.23;100.00
20620;BME280;10469;42.720;23.252;2022-11-15T04:10:31;95410.91;;;3.38;100.00
20620;BME280;10469;42.720;23.252;2022-11-15T04:12:56;95414.66;;;3.44;100.00
20620;BME280;10469;42.720;23.252;2022-11-15T04:15:23;95413.69;;;3.37;100.00
20620;BME280;10469;42.720;23.252;2022-11-15T04:17:51;95409.25;;;3.37;100.00
20620;BME280;10469;42.720;23.252;2022-11-15T04:20:27;95423.47;;;3.59;100.00
20620;BME280;10469;42.720;23.252;2022-11-15T04:23:15;95418.16;;;3.59;100.00
20620;BME280;10469;42.720;23.252;2022-11-15T04:26:05;95412.25;;;3.72;100.00
20620;BME280;10469;42.720;23.252;2022-11-15T04:28:31;95423.09;;;3.62;100.00
20620;BME280;10469;42.720;23.252;2022-11-15T04:30:56;95409.13;;;3.31;100.00
20620;BME280;10469;42.720;23.252;2022-11-15T04:33:22;95406.63;;;3.52;100.00
20620;BME280;10469;42.720;23.252;2022-11-15T04:35:50;95407.78;;;3.49;100.00
20620;BME280;10469;42.720;23.252;2022-11-15T04:38:39;95414.56;;;3.14;100.00
20620;BME280;10469;42.720;23.252;2022-11-15T04:41:04;95403.78;;;3.16;100.00
20620;BME280;10469;42.720;23.252;2022-11-15T04:43:32;95405.09;;;3.20;100.00
20620;BME280;10469;42.720;23.252;2022-11-15T04:45:58;95416.03;;;3.17;100.00
20620;BME280;10469;42.720;23.252;2022-11-15T04:48:29;95411.50;;;3.25;100.00
20620;BME280;10469;42.720;23.252;2022-11-15T04:50:56;95405.25;;;3.18;100.00
20620;BME280;10469;42.720;23.252;2022-11-15T04:53:22;95415.38;;;2.92;100.00
20620;BME280;10469;42.720;23.252;2022-11-15T04:55:47;95415.13;;;3.01;100.00
20620;BME280;10469;42.720;23.252;2022-11-15T04:58:13;95405.25;;;2.72;100.00
20620;BME280;10469;42.720;23.252;2022-11-15T05:00:40;95402.13;;;2.38;100.00
20620;BME280;10469;42.720;23.252;2022-11-15T05:03:09;95422.13;;;2.40;100.00
20620;BME280;10469;42.720;23.252;2022-11-15T05:05:53;95419.69;;;2.31;100.00
20620;BME280;10469;42.720;23.252;2022-11-15T05:08:18;95432.97;;;2.14;100.00
20620;BME280;10469;42.720;23.252;2022-11-15T05:10:44;95435.00;;;2.04;100.00
20620;BME280;10469;42.720;23.252;2022-11-15T05:13:11;95432.97;;;2.14;100.00
20620;BME280;10469;42.720;23.252;2022-11-15T05:15:36;95422.38;;;2.22;100.00
20620;BME280;10469;42.720;23.252;2022-11-15T05:18:02;95421.31;;;2.40;100.00
20620;BME280;10469;42.720;23.252;2022-11-15T05:20:28;95417.28;;;2.52;100.00
20620;BME280;10469;42.720;23.252;2022-11-15T05:22:56;95412.16;;;2.50;100.00
20620;BME280;10469;42.720;23.252;2022-11-15T05:25:22;95411.31;;;2.50;100.00
20620;BME280;10469;42.720;23.252;2022-11-15T05:27:49;95398.75;;;2.52;100.00
20620;BME280;10469;42.720;23.252;2022-11-15T05:30:15;95410.50;;;2.49;100.00
20620;BME280;10469;42.720;23.252;2022-11-15T05:32:42;95395.97;;;2.45;100.00
20620;BME280;10469;42.720;23.252;2022-11-15T05:35:12;95407.06;;;2.41;100.00
20620;BME280;10469;42.720;23.252;2022-11-15T05:37:41;95402.28;;;2.36;100.00
20620;BME280;10469;42.720;23.252;2022-11-15T05:40:07;95405.50;;;2.55;100.00
20620;BME280;10469;42.720;23.252;2022-11-15T05:42:34;95405.34;;;2.56;100.00
20620;BME280;10469;42.720;23.252;2022-11-15T05:45:02;95413.66;;;2.76;100.00
20620;BME280;10469;42.720;23.252;2022-11-15T05:47:30;95422.13;;;2.71;100.00
20620;BME280;10469;42.720;23.252;2022-11-15T05:50:01;95421.41;;;2.86;100.00
20620;BME280;10469;42.720;23.252;2022-11-15T05:52:31;95424.09;;;2.78;100.00
20620;BME280;10469;42.720;23.252;2022-11-15T05:55:02;95423.94;;;2.71;100.00
20620;BME280;10469;42.720;23.252;2022-11-15T05:57:28;95422.13;;;2.71;100.00
20620;BME280;10469;42.720;23.252;2022-11-15T05:59:54;95430.22;;;2.78;100.00
20620;BME280;10469;42.720;23.252;2022-11-15T06:02:20;95434.06;;;2.98;100.00
20620;BME280;10469;42.720;23.252;2022-11-15T06:04:47;95429.00;;;3.12;100.00
20620;BME280;10469;42.720;23.252;2022-11-15T06:07:12;95416.34;;;2.99;100.00
20620;BME280;10469;42.720;23.252;2022-11-15T06:09:39;95435.63;;;2.85;100.00
20620;BME280;10469;42.720;23.252;2022-11-15T06:12:05;95428.09;;;2.73;100.00
20620;BME280;10469;42.720;23.252;2022-11-15T06:14:30;95438.94;;;2.87;100.00
20620;BME280;10469;42.720;23.252;2022-11-15T06:16:56;95413.44;;;2.86;100.00
20620;BME280;10469;42.720;23.252;2022-11-15T06:19:23;95423.66;;;2.89;100.00
20620;BME280;10469;42.720;23.252;2022-11-15T06:21:49;95420.63;;;3.00;100.00
20620;BME280;10469;42.720;23.252;2022-11-15T06:24:16;95410.50;;;3.26;100.00
20620;BME280;10469;42.720;23.252;2022-11-15T06:26:42;95424.56;;;3.27;100.00
20620;BME280;10469;42.720;23.252;2022-11-15T06:29:08;95410.41;;;3.35;100.00
20620;BME280;10469;42.720;23.252;2022-11-15T06:31:34;95417.00;;;3.39;100.00
20620;BME280;10469;42.720;23.252;2022-11-15T06:34:00;95419.81;;;3.60;100.00
20620;BME280;10469;42.720;23.252;2022-11-15T06:36:25;95424.94;;;3.62;100.00
20620;BME280;10469;42.720;23.252;2022-11-15T06:38:51;95395.31;;;3.20;100.00
20620;BME280;10469;42.720;23.252;2022-11-15T06:41:17;95424.91;;;3.47;100.00
20620;BME280;10469;42.720;23.252;2022-11-15T06:43:43;95420.00;;;3.59;100.00
20620;BME280;10469;42.720;23.252;2022-11-15T06:46:08;95419.00;;;3.74;100.00
20620;BME280;10469;42.720;23.252;2022-11-15T06:48:36;95419.84;;;3.90;100.00
20620;BME280;10469;42.720;23.252;2022-11-15T06:51:04;95419.38;;;3.86;100.00
20620;BME280;10469;42.720;23.252;2022-11-15T06:53:30;95420.13;;;3.80;100.00
20620;BME280;10469;42.720;23.252;2022-11-15T06:56:01;95409.78;;;4.00;100.00
20620;BME280;10469;42.720;23.252;2022-11-15T06:58:27;95416.56;;;4.17;100.00
20620;BME280;10469;42.720;23.252;2022-11-15T07:00:58;95421.22;;;4.00;100.00
20620;BME280;10469;42.720;23.252;2022-11-15T07:03:24;95397.88;;;3.96;100.00
20620;BME280;10469;42.720;23.252;2022-11-15T07:05:54;95407.69;;;4.25;100.00
20620;BME280;10469;42.720;23.252;2022-11-15T07:08:21;95407.94;;;4.45;100.00
20620;BME280;10469;42.720;23.252;2022-11-15T07:10:47;95409.16;;;4.27;100.00
20620;BME280;10469;42.720;23.252;2022-11-15T07:13:12;95401.72;;;4.38;100.00
20620;BME280;10469;42.720;23.252;2022-11-15T07:15:38;95401.53;;;4.39;100.00
20620;BME280;10469;42.720;23.252;2022-11-15T07:18:03;95409.59;;;4.46;100.00
20620;BME280;10469;42.720;23.252;2022-11-15T07:20:29;95386.25;;;4.26;100.00
20620;BME280;10469;42.720;23.252;2022-11-15T07:23:01;95388.84;;;4.20;100.00
20620;BME280;10469;42.720;23.252;2022-11-15T07:25:27;95418.41;;;4.02;100.00
20620;BME280;10469;42.720;23.252;2022-11-15T07:27:57;95403.97;;;3.67;100.00
20620;BME280;10469;42.720;23.252;2022-11-15T07:30:24;95414.91;;;3.87;100.00
20620;BME280;10469;42.720;23.252;2022-11-15T07:32:59;95402.66;;;4.15;100.00
20620;BME280;10469;42.720;23.252;2022-11-15T07:35:26;95407.31;;;4.28;100.00
20620;BME280;10469;42.720;23.252;2022-11-15T07:37:56;95412.13;;;4.54;100.00
20620;BME280;10469;42.720;23.252;2022-11-15T07:40:22;95411.38;;;4.75;100.00
20620;BME280;10469;42.720;23.252;2022-11-15T07:42:48;95409.75;;;4.59;100.00
20620;BME280;10469;42.720;23.252;2022-11-15T07:45:24;95395.22;;;4.76;100.00
20620;BME280;10469;42.720;23.252;2022-11-15T07:47:53;95407.88;;;4.96;100.00
20620;BME280;10469;42.720;23.252;2022-11-15T07:50:19;95414.38;;;4.72;100.00
20620;BME280;10469;42.720;23.252;2022-11-15T07:52:45;95402.78;;;4.58;100.00
20620;BME280;10469;42.720;23.252;2022-11-15T07:55:11;95406.75;;;4.33;100.00
20620;BME280;10469;42.720;23.252;2022-11-15T07:57:37;95409.69;;;4.38;100.00
20620;BME280;10469;42.720;23.252;2022-11-15T08:00:05;95403.75;;;4.06;100.00
20620;BME280;10469;42.720;23.252;2022-11-15T08:02:31;95403.03;;;3.97;100.00
20620;BME280;10469;42.720;23.252;2022-11-15T08:04:56;95407.03;;;4.08;100.00
20620;BME280;10469;42.720;23.252;2022-11-15T08:07:22;95418.41;;;4.17;100.00
20620;BME280;10469;42.720;23.252;2022-11-15T08:09:48;95400.63;;;4.17;100.00
20620;BME280;10469;42.720;23.252;2022-11-15T08:12:14;95397.31;;;4.45;100.00
20620;BME280;10469;42.720;23.252;2022-11-15T08:14:40;95398.88;;;4.39;100.00
20620;BME280;10469;42.720;23.252;2022-11-15T08:17:06;95400.59;;;4.47;100.00
20620;BME280;10469;42.720;23.252;2022-11-15T08:19:31;95401.22;;;4.49;100.00
20620;BME280;10469;42.720;23.252;2022-11-15T08:21:57;95398.41;;;4.36;100.00
20620;BME280;10469;42.720;23.252;2022-11-15T08:24:23;95384.66;;;4.47;100.00
20620;BME280;10469;42.720;23.252;2022-11-15T08:26:48;95388.50;;;4.59;100.00
20620;BME280;10469;42.720;23.252;2022-11-15T08:29:14;95389.56;;;4.80;100.00
20620;BME280;10469;42.720;23.252;2022-11-15T08:31:41;95389.28;;;4.96;100.00
20620;BME280;10469;42.720;23.252;2022-11-15T08:34:07;95387.31;;;5.04;100.00
20620;BME280;10469;42.720;23.252;2022-11-15T08:36:33;95383.59;;;5.42;100.00
20620;BME280;10469;42.720;23.252;2022-11-15T08:38:59;95381.53;;;5.44;100.00
20620;BME280;10469;42.720;23.252;2022-11-15T08:41:35;95384.41;;;5.42;100.00
20620;BME280;10469;42.720;23.252;2022-11-15T08:46:35;95289.56;;;5.00;100.00
20620;BME280;10469;42.720;23.252;2022-11-15T08:49:02;95369.78;;;5.53;100.00
20620;BME280;10469;42.720;23.252;2022-11-15T08:51:28;95374.69;;;5.56;100.00
20620;BME280;10469;42.720;23.252;2022-11-15T08:53:53;95371.59;;;5.81;100.00
20620;BME280;10469;42.720;23.252;2022-11-15T08:56:19;95368.75;;;6.10;100.00
20620;BME280;10469;42.720;23.252;2022-11-15T08:58:44;95366.53;;;6.20;100.00
20620;BME280;10469;42.720;23.252;2022-11-15T09:01:18;95335.03;;;5.61;100.00
20620;BME280;10469;42.720;23.252;2022-11-15T09:03:43;95363.84;;;5.86;100.00
20620;BME280;10469;42.720;23.252;2022-11-15T09:06:09;95350.91;;;6.11;100.00
20620;BME280;10469;42.720;23.252;2022-11-15T09:08:35;95338.56;;;5.96;100.00
20620;BME280;10469;42.720;23.252;2022-11-15T09:11:06;95348.25;;;5.83;100.00
20620;BME280;10469;42.720;23.252;2022-11-15T09:13:32;95342.66;;;5.99;100.00
20620;BME280;10469;42.720;23.252;2022-11-15T09:16:00;95310.06;;;5.62;100.00
20620;BME280;10469;42.720;23.252;2022-11-15T09:18:27;95343.66;;;5.63;100.00
20620;BME280;10469;42.720;23.252;2022-11-15T09:20:56;95345.59;;;5.83;100.00
20620;BME280;10469;42.720;23.252;2022-11-15T09:23:24;95335.75;;;6.05;100.00
20620;BME280;10469;42.720;23.252;2022-11-15T09:25:50;95328.16;;;6.01;100.00
20620;BME280;10469;42.720;23.252;2022-11-15T09:28:17;95272.50;;;5.78;100.00
20620;BME280;10469;42.720;23.252;2022-11-15T09:30:43;95316.97;;;5.85;100.00
20620;BME280;10469;42.720;23.252;2022-11-15T09:33:10;95306.81;;;5.95;100.00
20620;BME280;10469;42.720;23.252;2022-11-15T09:35:40;95293.94;;;5.98;100.00
20620;BME280;10469;42.720;23.252;2022-11-15T09:38:07;95273.44;;;5.92;100.00
20620;BME280;10469;42.720;23.252;2022-11-15T09:40:36;95307.16;;;6.26;100.00
20620;BME280;10469;42.720;23.252;2022-11-15T09:48:53;95298.97;;;6.28;100.00
20620;BME280;10469;42.720;23.252;2022-11-15T09:51:35;95296.94;;;6.37;100.00
20620;BME280;10469;42.720;23.252;2022-11-15T09:56:53;95285.81;;;7.01;100.00
20620;BME280;10469;42.720;23.252;2022-11-15T10:04:48;95264.16;;;6.36;100.00
20620;BME280;10469;42.720;23.252;2022-11-15T10:07:19;95196.50;;;6.17;100.00
20620;BME280;10469;42.720;23.252;2022-11-15T10:12:23;95261.59;;;6.96;100.00
20620;BME280;10469;42.720;23.252;2022-11-15T10:15:00;95267.13;;;6.74;100.00
20620;BME280;10469;42.720;23.252;2022-11-15T10:20:20;95253.78;;;7.27;100.00
20620;BME280;10469;42.720;23.252;2022-11-15T10:22:51;95180.78;;;7.02;100.00
20620;BME280;10469;42.720;23.252;2022-11-15T10:25:31;95252.72;;;7.55;100.00
20620;BME280;10469;42.720;23.252;2022-11-15T10:30:23;95242.19;;;7.87;100.00
20620;BME280;10469;42.720;23.252;2022-11-15T10:32:55;95233.91;;;8.01;100.00
20620;BME280;10469;42.720;23.252;2022-11-15T10:35:29;95216.34;;;8.25;100.00
20620;BME280;10469;42.720;23.252;2022-11-15T10:38:07;95227.91;;;8.06;100.00
20620;BME280;10469;42.720;23.252;2022-11-15T10:40:33;95191.00;;;8.35;100.00
20620;BME280;10469;42.720;23.252;2022-11-15T10:43:17;95221.09;;;8.17;100.00
20620;BME280;10469;42.720;23.252;2022-11-15T10:45:43;95197.00;;;8.23;100.00
20620;BME280;10469;42.720;23.252;2022-11-15T10:50:43;95172.97;;;8.62;100.00
20620;BME280;10469;42.720;23.252;2022-11-15T10:53:23;95196.13;;;10.16;100.00
20620;BME280;10469;42.720;23.252;2022-11-15T10:56:01;95184.00;;;12.03;100.00
20620;BME280;10469;42.720;23.252;2022-11-15T10:58:40;95181.94;;;11.70;100.00
20620;BME280;10469;42.720;23.252;2022-11-15T11:01:17;95179.94;;;10.95;100.00
20620;BME280;10469;42.720;23.252;2022-11-15T11:03:57;95168.06;;;12.13;100.00
20620;BME280;10469;42.720;23.252;2022-11-15T11:06:24;95151.50;;;11.29;100.00
20620;BME280;10469;42.720;23.252;2022-11-15T11:09:04;95149.00;;;12.26;100.00
20620;BME280;10469;42.720;23.252;2022-11-15T11:11:47;95154.75;;;11.66;100.00
20620;BME280;10469;42.720;23.252;2022-11-15T11:16:53;95138.50;;;12.42;100.00
20620;BME280;10469;42.720;23.252;2022-11-15T11:30:24;95125.25;;;13.97;100.00
20620;BME280;10469;42.720;23.252;2022-11-15T11:33:08;95117.41;;;14.71;100.00
20620;BME280;10469;42.720;23.252;2022-11-15T11:49:16;95078.34;;;13.98;100.00
20620;BME280;10469;42.720;23.252;2022-11-15T11:52:02;95076.03;;;14.34;100.00
20620;BME280;10469;42.720;23.252;2022-11-15T12:00:03;95062.19;;;13.15;100.00
20620;BME280;10469;42.720;23.252;2022-11-15T12:02:31;95074.06;;;14.02;100.00
20620;BME280;10469;42.720;23.252;2022-11-15T12:05:23;95060.44;;;14.68;100.00
20620;BME280;10469;42.720;23.252;2022-11-15T12:07:54;95039.75;;;13.92;100.00
20620;BME280;10469;42.720;23.252;2022-11-15T12:10:28;95053.03;;;13.99;100.00
20620;BME280;10469;42.720;23.252;2022-11-15T12:13:06;95046.22;;;14.77;100.00
20620;BME280;10469;42.720;23.252;2022-11-15T12:15:57;95037.03;;;13.92;100.00
20620;BME280;10469;42.720;23.252;2022-11-15T12:18:25;95033.88;;;12.40;100.00
20620;BME280;10469;42.720;23.252;2022-11-15T12:20:58;95039.69;;;13.87;100.00
20620;BME280;10469;42.720;23.252;2022-11-15T12:23:30;95022.97;;;14.76;100.00
20620;BME280;10469;42.720;23.252;2022-11-15T12:28:42;95026.41;;;13.37;100.00
20620;BME280;10469;42.720;23.252;2022-11-15T12:31:35;95030.34;;;13.29;100.00
20620;BME280;10469;42.720;23.252;2022-11-15T12:36:54;95017.47;;;12.92;100.00
20620;BME280;10469;42.720;23.252;2022-11-15T12:39:20;95020.22;;;13.58;100.00
20620;BME280;10469;42.720;23.252;2022-11-15T12:47:26;95010.34;;;11.45;100.00
20620;BME280;10469;42.720;23.252;2022-11-15T12:49:52;95000.09;;;10.90;100.00
20620;BME280;10469;42.720;23.252;2022-11-15T12:52:19;95006.75;;;10.75;100.00
20620;BME280;10469;42.720;23.252;2022-11-15T12:54:56;95010.47;;;10.51;100.00
20620;BME280;10469;42.720;23.252;2022-11-15T12:57:29;94990.16;;;10.32;100.00
20620;BME280;10469;42.720;23.252;2022-11-15T12:59:57;94999.88;;;10.79;100.00
20620;BME280;10469;42.720;23.252;2022-11-15T13:02:43;94997.66;;;9.99;100.00
20620;BME280;10469;42.720;23.252;2022-11-15T13:17:54;94980.75;;;9.87;100.00
20620;BME280;10469;42.720;23.252;2022-11-15T13:20:29;94972.78;;;9.69;100.00
20620;BME280;10469;42.720;23.252;2022-11-15T13:23:13;94979.34;;;9.43;100.00
20620;BME280;10469;42.720;23.252;2022-11-15T13:31:02;94971.13;;;9.26;100.00
20620;BME280;10469;42.720;23.252;2022-11-15T13:33:37;94966.63;;;9.08;100.00
20620;BME280;10469;42.720;23.252;2022-11-15T13:36:14;94967.22;;;9.40;100.00
20620;BME280;10469;42.720;23.252;2022-11-15T13:38:42;94964.00;;;9.01;100.00
20620;BME280;10469;42.720;23.252;2022-11-15T13:41:29;94963.34;;;9.06;100.00
20620;BME280;10469;42.720;23.252;2022-11-15T13:43:56;94970.09;;;9.09;100.00
20620;BME280;10469;42.720;23.252;2022-11-15T13:49:09;94965.66;;;9.02;100.00
20620;BME280;10469;42.720;23.252;2022-11-15T13:54:14;94959.56;;;8.59;100.00
20620;BME280;10469;42.720;23.252;2022-11-15T13:56:48;94971.06;;;8.59;100.00
20620;BME280;10469;42.720;23.252;2022-11-15T13:59:24;94975.34;;;8.17;100.00
20620;BME280;10469;42.720;23.252;2022-11-15T14:01:51;94971.53;;;7.81;100.00
20620;BME280;10469;42.720;23.252;2022-11-15T14:04:20;94986.13;;;7.78;100.00
20620;BME280;10469;42.720;23.252;2022-11-15T14:06:53;94981.88;;;7.71;100.00
20620;BME280;10469;42.720;23.252;2022-11-15T14:11:53;94965.97;;;7.83;100.00
20620;BME280;10469;42.720;23.252;2022-11-15T14:14:23;94939.56;;;7.74;100.00
20620;BME280;10469;42.720;23.252;2022-11-15T14:16:58;94969.25;;;7.85;100.00
20620;BME280;10469;42.720;23.252;2022-11-15T14:24:34;94967.16;;;7.62;100.00
20620;BME280;10469;42.720;23.252;2022-11-15T14:29:47;94967.19;;;7.55;100.00
20620;BME280;10469;42.720;23.252;2022-11-15T14:32:22;94963.53;;;7.49;100.00
20620;BME280;10469;42.720;23.252;2022-11-15T14:34:49;94955.53;;;7.11;100.00
20620;BME280;10469;42.720;23.252;2022-11-15T14:37:24;94969.63;;;7.25;100.00
20620;BME280;10469;42.720;23.252;2022-11-15T14:39:50;94965.97;;;7.19;100.00
20620;BME280;10469;42.720;23.252;2022-11-15T14:42:16;94958.72;;;6.88;100.00
20620;BME280;10469;42.720;23.252;2022-11-15T14:44:42;94956.69;;;6.84;100.00
20620;BME280;10469;42.720;23.252;2022-11-15T14:47:07;94956.94;;;6.75;100.00
20620;BME280;10469;42.720;23.252;2022-11-15T14:49:33;94959.88;;;6.61;100.00
20620;BME280;10469;42.720;23.252;2022-11-15T14:51:58;94942.66;;;6.50;100.00
20620;BME280;10469;42.720;23.252;2022-11-15T14:54:24;94966.19;;;6.60;100.00
20620;BME280;10469;42.720;23.252;2022-11-15T14:56:49;94971.13;;;6.56;100.00
20620;BME280;10469;42.720;23.252;2022-11-15T14:59:14;94954.94;;;6.51;100.00
20620;BME280;10469;42.720;23.252;2022-11-15T15:01:40;94967.88;;;6.47;100.00
20620;BME280;10469;42.720;23.252;2022-11-15T15:04:06;94965.63;;;6.44;100.00
20620;BME280;10469;42.720;23.252;2022-11-15T15:06:36;94920.00;;;6.21;100.00
20620;BME280;10469;42.720;23.252;2022-11-15T15:09:01;94963.75;;;6.58;100.00
20620;BME280;10469;42.720;23.252;2022-11-15T15:11:29;94951.03;;;6.67;100.00
20620;BME280;10469;42.720;23.252;2022-11-15T15:13:56;94949.16;;;6.67;100.00
20620;BME280;10469;42.720;23.252;2022-11-15T15:16:24;94950.97;;;6.87;100.00
20620;BME280;10469;42.720;23.252;2022-11-15T15:18:49;94947.59;;;6.98;100.00
20620;BME280;10469;42.720;23.252;2022-11-15T15:21:26;94954.03;;;6.84;100.00
20620;BME280;10469;42.720;23.252;2022-11-15T15:23:53;94957.84;;;7.01;100.00
20620;BME280;10469;42.720;23.252;2022-11-15T15:26:22;94944.13;;;6.97;100.00